Array
(
    [0] => p
    [1] => TAF-100
)
বাংলা English Search

** Maritime ports have been advised to hoist Local Cautionary Signal No 03(Three)..**

TAF

TAF VGHS 110500Z 1106/1212 19010KT 3500HZ SCT015 BKN100
TEMPO 1106/1112 23025KT 2000RA/TSRA BKN008 FEW025CB OVC090
BECMG 1112/1114 18010KT 4000HZ SCT015 BKN100
TEMPO 1115/1212 22025KT 2000RA/TSRA BKN008 FEW025CB OVC090=

TAF VGSY 110400Z 1106/1212 12005KT 3500HZ SCT012 BKN100
BECMG 1123/1201 04005KT 3000HZ SCT012 BKN100
TEMPO 1106/1206 18020KT 2000 RA/TSRA BKN006 FEW025CB OVC080=

TAF VGEG 110500Z 1106/1212 22012G15KT 2000 RA/TSRA BKN009 FEW028CB OVC090
  BECMG 1121/1223 00000KT 3500 SCT012 BKN100
  TEMPO 1202/1208 23012KT 2500 RA/TSRA BKN008 FEW027CB OVC090=

Download Refresh Full Screen
    http://live.bmd.gov.bd/p/TAF-100/